Time;durP1;ratioP1;P1;durP2;ratioP2;P2;SDS_P1;SDS_P2;PMS_P1;PMS_P2;Temp;Humidity;BMP_temperature;BMP_pressure;BME280_temperature;BME280_humidity;BME280_pressure;Samples;Min_cycle;Max_cycle;Signal;HPM_P1;HPM_P2
2022/12/09 00:00:40;;;;;;;4.85;1.50;;;;;;;;;;6312121;22;20019;-94
2022/12/09 00:03:05;;;;;;;5.55;1.40;;;;;;;;;;6315739;22;20007;-95
2022/12/09 00:05:30;;;;;;;8.30;1.50;;;;;;;;;;6322015;22;20029;-94
2022/12/09 00:07:55;;;;;;;5.15;1.40;;;;;;;;;;6319015;22;20321;-95
2022/12/09 00:10:22;;;;;;;6.13;1.40;;;;;;;;;;6304200;22;20049;-95
2022/12/09 00:12:47;;;;;;;6.47;1.50;;;;;;;;;;6309323;22;20023;-94
2022/12/09 00:15:13;;;;;;;4.28;1.20;;;;;;;;;;6314329;22;20043;-94
2022/12/09 00:17:38;;;;;;;8.15;1.95;;;;;;;;;;6319692;22;19999;-96
2022/12/09 00:20:04;;;;;;;6.72;1.60;;;;;;;;;;6316855;22;20034;-95
2022/12/09 00:22:29;;;;;;;6.28;1.48;;;;;;;;;;6302062;22;20056;-95
2022/12/09 00:24:54;;;;;;;6.55;1.35;;;;;;;;;;6301221;22;20005;-95
2022/12/09 00:27:20;;;;;;;5.20;1.25;;;;;;;;;;6299688;22;20456;-95
2022/12/09 00:29:45;;;;;;;6.60;1.70;;;;;;;;;;6324847;22;20008;-95
2022/12/09 00:32:10;;;;;;;4.75;1.35;;;;;;;;;;6302486;22;20432;-92
2022/12/09 00:34:35;;;;;;;8.80;1.40;;;;;;;;;;6299117;22;20003;-93
2022/12/09 00:37:01;;;;;;;7.95;1.70;;;;;;;;;;6297669;22;20090;-94
2022/12/09 00:39:26;;;;;;;5.72;1.50;;;;;;;;;;6300697;22;20003;-94
2022/12/09 00:41:51;;;;;;;5.15;1.15;;;;;;;;;;6300211;22;20476;-95
2022/12/09 00:44:17;;;;;;;5.22;1.20;;;;;;;;;;6300055;22;20367;-94
2022/12/09 00:46:42;;;;;;;6.30;1.35;;;;;;;;;;6300719;22;20079;-93
2022/12/09 00:49:09;;;;;;;7.13;1.48;;;;;;;;;;6299403;22;20057;-95
2022/12/09 00:51:34;;;;;;;6.57;1.40;;;;;;;;;;6300486;22;20026;-94
2022/12/09 00:53:59;;;;;;;7.95;1.67;;;;;;;;;;6302423;22;20026;-95
2022/12/09 00:56:27;;;;;;;7.05;1.40;;;;;;;;;;6301486;22;20006;-93
2022/12/09 00:58:58;;;;;;;8.77;1.50;;;;;;;;;;6302040;22;19999;-94
2022/12/09 01:01:24;;;;;;;6.78;1.10;;;;;;;;;;6299555;22;20003;-94
2022/12/09 01:03:49;;;;;;;6.53;1.30;;;;;;;;;;6297735;22;20014;-95
2022/12/09 01:06:20;;;;;;;5.78;1.40;;;;;;;;;;6299672;22;20043;-94
2022/12/09 01:08:46;;;;;;;5.68;1.40;;;;;;;;;;6298672;22;20007;-94
2022/12/09 01:11:13;;;;;;;4.55;1.00;;;;;;;;;;6308861;22;20474;-94
2022/12/09 01:13:39;;;;;;;5.70;1.48;;;;;;;;;;6303861;22;20037;-93
2022/12/09 01:16:11;;;;;;;7.05;1.48;;;;;;;;;;6302841;22;20003;-93
2022/12/09 01:18:36;;;;;;;9.90;1.15;;;;;;;;;;6303476;22;20010;-94
2022/12/09 01:21:02;;;;;;;5.85;1.48;;;;;;;;;;6330718;22;20343;-93
2022/12/09 01:23:27;;;;;;;6.70;1.40;;;;;;;;;;6300595;22;20016;-93
2022/12/09 01:25:52;;;;;;;6.22;1.65;;;;;;;;;;6329286;22;20026;-94
2022/12/09 01:28:17;;;;;;;5.32;1.23;;;;;;;;;;6301698;22;20007;-93
2022/12/09 01:30:43;;;;;;;5.15;1.05;;;;;;;;;;6300695;22;20036;-94
2022/12/09 01:33:09;;;;;;;4.93;1.40;;;;;;;;;;6303016;22;20010;-93
2022/12/09 01:35:34;;;;;;;5.75;1.10;;;;;;;;;;6304016;22;20109;-93
2022/12/09 01:37:59;;;;;;;6.88;1.20;;;;;;;;;;6303011;22;20094;-94
2022/12/09 01:40:25;;;;;;;5.97;1.13;;;;;;;;;;6332490;22;20443;-93
2022/12/09 01:42:50;;;;;;;8.88;1.50;;;;;;;;;;6304011;22;20412;-93
2022/12/09 01:45:18;;;;;;;6.32;1.20;;;;;;;;;;6303546;22;20037;-94
2022/12/09 01:47:44;;;;;;;7.07;1.55;;;;;;;;;;6332555;22;20003;-93
2022/12/09 01:50:09;;;;;;;5.45;1.15;;;;;;;;;;6335599;22;20314;-94
2022/12/09 01:52:34;;;;;;;7.55;1.35;;;;;;;;;;6307335;22;20011;-94
2022/12/09 01:55:00;;;;;;;8.05;1.25;;;;;;;;;;6308043;22;20001;-93
2022/12/09 01:57:25;;;;;;;8.77;1.13;;;;;;;;;;6308231;22;20009;-94
2022/12/09 01:59:51;;;;;;;5.53;1.20;;;;;;;;;;6308411;22;20002;-94
2022/12/09 02:02:17;;;;;;;7.93;1.30;;;;;;;;;;6334143;22;19999;-94
2022/12/09 02:04:46;;;;;;;15.30;1.50;;;;;;;;;;6308969;22;20013;-94
2022/12/09 02:07:11;;;;;;;8.02;1.30;;;;;;;;;;6306624;22;20399;-94
2022/12/09 02:09:38;;;;;;;5.65;1.17;;;;;;;;;;6333554;22;19998;-94
2022/12/09 02:12:10;;;;;;;7.75;1.40;;;;;;;;;;6303093;22;20122;-94
2022/12/09 02:14:40;;;;;;;10.77;1.60;;;;;;;;;;6305349;22;20030;-93
2022/12/09 02:17:24;;;;;;;9.25;1.33;;;;;;;;;;6306878;22;19994;-93
2022/12/09 02:20:00;;;;;;;6.80;1.30;;;;;;;;;;6308436;22;20010;-93
2022/12/09 02:22:28;;;;;;;6.10;1.00;;;;;;;;;;6307459;22;20006;-94
2022/12/09 02:24:58;;;;;;;8.85;1.15;;;;;;;;;;6306232;22;20087;-93
2022/12/09 02:27:28;;;;;;;9.65;1.20;;;;;;;;;;6308193;22;20010;-93
2022/12/09 02:29:57;;;;;;;8.60;1.42;;;;;;;;;;6335783;22;20087;-94
2022/12/09 02:32:28;;;;;;;8.43;1.20;;;;;;;;;;6332846;22;19999;-94
2022/12/09 02:34:57;;;;;;;14.10;1.60;;;;;;;;;;6333554;22;20007;-94
2022/12/09 02:37:32;;;;;;;12.80;1.98;;;;;;;;;;6336040;22;20029;-93
2022/12/09 02:40:16;;;;;;;10.98;1.50;;;;;;;;;;6315024;22;19995;-94
2022/12/09 02:42:43;;;;;;;8.70;1.33;;;;;;;;;;6319172;22;20352;-93
2022/12/09 02:45:09;;;;;;;10.25;1.63;;;;;;;;;;6336724;22;20002;-95
2022/12/09 02:47:37;;;;;;;10.77;1.30;;;;;;;;;;6304981;22;20007;-92
2022/12/09 02:50:08;;;;;;;8.65;1.38;;;;;;;;;;6333284;22;20025;-94
2022/12/09 02:52:34;;;;;;;9.30;1.52;;;;;;;;;;6312581;22;20317;-95
2022/12/09 02:55:01;;;;;;;6.72;1.33;;;;;;;;;;6314880;22;20018;-95
2022/12/09 02:57:27;;;;;;;7.85;1.25;;;;;;;;;;6336909;22;19998;-95
2022/12/09 02:59:52;;;;;;;6.80;1.10;;;;;;;;;;6302679;22;20007;-94
2022/12/09 03:02:21;;;;;;;7.63;1.08;;;;;;;;;;6266425;22;20353;-92
2022/12/09 03:05:01;;;;;;;9.15;1.50;;;;;;;;;;6296435;22;20093;-93
2022/12/09 03:07:32;;;;;;;7.85;1.63;;;;;;;;;;6272016;22;20003;-94
2022/12/09 03:10:05;;;;;;;7.70;1.20;;;;;;;;;;6276528;22;20002;-95
2022/12/09 03:12:32;;;;;;;12.70;1.30;;;;;;;;;;6276523;22;20047;-95
2022/12/09 03:14:58;;;;;;;8.85;1.58;;;;;;;;;;6301586;22;20075;-94
2022/12/09 03:17:28;;;;;;;6.57;1.10;;;;;;;;;;6299863;22;20046;-94
2022/12/09 03:19:55;;;;;;;7.45;1.27;;;;;;;;;;6300122;22;20026;-95
2022/12/09 03:22:27;;;;;;;5.72;1.10;;;;;;;;;;6299543;22;20011;-95
2022/12/09 03:25:12;;;;;;;10.13;1.42;;;;;;;;;;6299295;22;19995;-94
2022/12/09 03:27:41;;;;;;;8.65;1.67;;;;;;;;;;6292598;22;20440;-94
2022/12/09 03:30:08;;;;;;;8.52;1.23;;;;;;;;;;6299624;22;20011;-93
2022/12/09 03:32:36;;;;;;;9.30;1.60;;;;;;;;;;6299421;22;20022;-94
2022/12/09 03:35:06;;;;;;;5.28;0.98;;;;;;;;;;6299170;22;20012;-95
2022/12/09 03:37:31;;;;;;;6.22;1.00;;;;;;;;;;6298599;22;19999;-93
2022/12/09 03:39:57;;;;;;;8.80;1.08;;;;;;;;;;6295965;22;20007;-94
2022/12/09 03:42:25;;;;;;;6.85;0.90;;;;;;;;;;6299418;22;20069;-94
2022/12/09 03:44:53;;;;;;;5.72;1.00;;;;;;;;;;6297486;22;20004;-95
2022/12/09 03:47:19;;;;;;;7.43;1.02;;;;;;;;;;6295447;22;20039;-94
2022/12/09 03:49:44;;;;;;;7.60;1.20;;;;;;;;;;6298399;22;20329;-94
2022/12/09 03:52:15;;;;;;;5.47;1.00;;;;;;;;;;6300806;22;20023;-95
2022/12/09 03:54:45;;;;;;;13.50;1.65;;;;;;;;;;6302760;22;20019;-94
2022/12/09 03:57:14;;;;;;;7.13;1.23;;;;;;;;;;6301761;22;20003;-95
2022/12/09 03:59:41;;;;;;;7.05;1.10;;;;;;;;;;6302277;22;19998;-94
2022/12/09 04:02:06;;;;;;;7.47;0.70;;;;;;;;;;6301423;22;20007;-95
2022/12/09 04:04:33;;;;;;;9.48;1.35;;;;;;;;;;6300918;22;20056;-95
2022/12/09 04:06:58;;;;;;;9.80;1.33;;;;;;;;;;6299762;22;20007;-94
2022/12/09 04:09:28;;;;;;;7.30;1.05;;;;;;;;;;6302922;22;20042;-95
2022/12/09 04:11:54;;;;;;;7.10;0.90;;;;;;;;;;6299439;22;20018;-93
2022/12/09 04:14:22;;;;;;;5.82;0.90;;;;;;;;;;6299456;22;20003;-94
2022/12/09 04:16:48;;;;;;;6.95;0.90;;;;;;;;;;6299761;22;20007;-94
2022/12/09 04:19:13;;;;;;;6.65;1.08;;;;;;;;;;6299809;22;20662;-94
2022/12/09 04:21:38;;;;;;;8.05;1.05;;;;;;;;;;6299262;22;20018;-94
2022/12/09 04:24:04;;;;;;;6.95;0.88;;;;;;;;;;6300475;22;20449;-95
2022/12/09 04:26:29;;;;;;;7.78;1.08;;;;;;;;;;6273505;22;20053;-95
2022/12/09 04:28:54;;;;;;;5.55;0.85;;;;;;;;;;6300971;22;20046;-94
2022/12/09 04:31:19;;;;;;;7.28;1.10;;;;;;;;;;6300420;22;20038;-94
2022/12/09 04:33:45;;;;;;;8.73;1.15;;;;;;;;;;6298818;22;20377;-94
2022/12/09 04:36:13;;;;;;;11.75;0.93;;;;;;;;;;6299759;22;19991;-95
2022/12/09 04:38:39;;;;;;;9.68;1.10;;;;;;;;;;6300914;22;19996;-94
2022/12/09 04:41:04;;;;;;;8.75;1.08;;;;;;;;;;6299233;22;20018;-94
2022/12/09 04:43:30;;;;;;;8.38;1.25;;;;;;;;;;6301130;22;19991;-95
2022/12/09 04:45:59;;;;;;;7.32;1.00;;;;;;;;;;6300131;22;20008;-94
2022/12/09 04:48:24;;;;;;;6.20;0.75;;;;;;;;;;6296428;22;20003;-94
2022/12/09 04:50:50;;;;;;;6.05;1.05;;;;;;;;;;6299632;22;19991;-94
2022/12/09 04:53:15;;;;;;;3.30;0.52;;;;;;;;;;6296610;22;20218;-94
2022/12/09 04:55:40;;;;;;;7.28;0.70;;;;;;;;;;6297761;22;20034;-94
2022/12/09 04:58:05;;;;;;;8.57;0.80;;;;;;;;;;6297477;22;20036;-94
2022/12/09 05:00:31;;;;;;;5.90;1.10;;;;;;;;;;6298689;22;20010;-94
2022/12/09 05:02:56;;;;;;;7.32;0.90;;;;;;;;;;6296775;22;20467;-94
2022/12/09 05:05:21;;;;;;;6.38;1.02;;;;;;;;;;6296417;22;20007;-94
2022/12/09 05:07:47;;;;;;;9.52;0.90;;;;;;;;;;6297917;22;20336;-94
2022/12/09 05:10:12;;;;;;;6.75;0.90;;;;;;;;;;6298195;22;19999;-95
2022/12/09 05:12:37;;;;;;;7.55;0.82;;;;;;;;;;6298610;22;20003;-94
2022/12/09 05:15:03;;;;;;;6.05;0.90;;;;;;;;;;6298712;22;19999;-94
2022/12/09 05:17:28;;;;;;;9.15;0.90;;;;;;;;;;6299919;22;20054;-94
2022/12/09 05:19:53;;;;;;;9.63;1.10;;;;;;;;;;6301010;22;19995;-95
2022/12/09 05:22:18;;;;;;;4.47;0.90;;;;;;;;;;6302076;22;20012;-94
2022/12/09 05:24:45;;;;;;;4.68;0.75;;;;;;;;;;6300953;22;20011;-95
2022/12/09 05:27:10;;;;;;;6.32;0.80;;;;;;;;;;6302450;22;20388;-94
2022/12/09 05:29:36;;;;;;;8.10;1.90;;;;;;;;;;6301805;22;20011;-94
2022/12/09 05:32:01;;;;;;;8.30;1.00;;;;;;;;;;6301352;22;20061;-94
2022/12/09 05:34:26;;;;;;;6.47;0.90;;;;;;;;;;6269592;22;20534;-94
2022/12/09 05:36:52;;;;;;;5.18;0.60;;;;;;;;;;6293497;22;20003;-94
2022/12/09 05:39:17;;;;;;;8.23;0.90;;;;;;;;;;6301626;22;19995;-94
2022/12/09 05:41:42;;;;;;;9.52;1.13;;;;;;;;;;6276535;22;20130;-95
2022/12/09 05:44:09;;;;;;;4.15;0.70;;;;;;;;;;6302960;22;20002;-94
2022/12/09 05:46:35;;;;;;;4.82;0.88;;;;;;;;;;6304200;22;20007;-95
2022/12/09 05:49:00;;;;;;;3.85;0.68;;;;;;;;;;6301542;22;20059;-94
2022/12/09 05:51:26;;;;;;;7.68;0.80;;;;;;;;;;6301038;22;20015;-95
2022/12/09 05:53:53;;;;;;;9.85;0.90;;;;;;;;;;6301110;22;20034;-94
2022/12/09 05:56:20;;;;;;;5.93;0.68;;;;;;;;;;6302206;22;20034;-94
2022/12/09 05:58:45;;;;;;;6.60;0.70;;;;;;;;;;6303056;22;20014;-94
2022/12/09 06:01:10;;;;;;;8.70;1.13;;;;;;;;;;6301606;22;20439;-94
2022/12/09 06:03:36;;;;;;;9.27;1.05;;;;;;;;;;6301050;22;20380;-94
2022/12/09 06:06:21;;;;;;;5.90;0.95;;;;;;;;;;6300993;22;20007;-95
2022/12/09 06:08:47;;;;;;;5.43;0.75;;;;;;;;;;6302314;22;19999;-93
2022/12/09 06:11:14;;;;;;;4.45;0.63;;;;;;;;;;6300598;22;20337;-95
2022/12/09 06:13:39;;;;;;;7.15;0.90;;;;;;;;;;6303195;22;19992;-95
2022/12/09 06:16:05;;;;;;;5.07;0.73;;;;;;;;;;6301155;22;20038;-95
2022/12/09 06:18:30;;;;;;;3.50;0.55;;;;;;;;;;6301115;22;20003;-95
2022/12/09 06:20:56;;;;;;;4.93;0.77;;;;;;;;;;6300932;22;20006;-94
2022/12/09 06:23:25;;;;;;;5.07;0.77;;;;;;;;;;6300801;22;20021;-93
2022/12/09 06:25:50;;;;;;;2.60;0.38;;;;;;;;;;6301028;22;20007;-94
2022/12/09 06:28:16;;;;;;;2.08;0.47;;;;;;;;;;6301285;22;20445;-94
2022/12/09 06:30:41;;;;;;;4.93;0.75;;;;;;;;;;6302255;22;20428;-94
2022/12/09 06:33:06;;;;;;;5.65;0.75;;;;;;;;;;6300554;22;20007;-94
2022/12/09 06:38:35;;;;;;;2.95;0.63;;;;;;;;;;6301549;22;20439;-94
2022/12/09 06:41:03;;;;;;;7.50;0.90;;;;;;;;;;6300945;22;20012;-94
2022/12/09 06:43:29;;;;;;;3.53;0.50;;;;;;;;;;6300615;22;20019;-94
2022/12/09 06:45:54;;;;;;;4.75;0.80;;;;;;;;;;6297315;22;20007;-93
2022/12/09 06:48:19;;;;;;;3.20;0.60;;;;;;;;;;6297717;22;20011;-93
2022/12/09 06:50:45;;;;;;;5.78;0.68;;;;;;;;;;6299447;22;20078;-94
2022/12/09 06:53:10;;;;;;;3.92;0.60;;;;;;;;;;6299239;22;20785;-94
2022/12/09 06:55:35;;;;;;;3.78;0.60;;;;;;;;;;6300711;22;20061;-93
2022/12/09 06:58:01;;;;;;;3.42;0.50;;;;;;;;;;6299306;22;20426;-93
2022/12/09 07:00:26;;;;;;;7.53;0.70;;;;;;;;;;6295529;22;20007;-94
2022/12/09 07:02:52;;;;;;;4.25;0.57;;;;;;;;;;6296891;22;20053;-94
2022/12/09 07:05:17;;;;;;;4.65;0.85;;;;;;;;;;6300199;22;20451;-95
2022/12/09 07:07:42;;;;;;;7.25;1.00;;;;;;;;;;6299046;22;20141;-94
2022/12/09 07:10:08;;;;;;;7.43;1.00;;;;;;;;;;6296659;22;20010;-94
2022/12/09 07:12:33;;;;;;;4.85;0.90;;;;;;;;;;6297431;22;20527;-94
2022/12/09 07:14:59;;;;;;;4.68;0.60;;;;;;;;;;6299030;22;20128;-93
2022/12/09 07:17:24;;;;;;;4.88;1.00;;;;;;;;;;6298991;22;20007;-94
2022/12/09 07:19:50;;;;;;;2.90;0.60;;;;;;;;;;6297805;22;20029;-94
2022/12/09 07:22:15;;;;;;;6.40;0.82;;;;;;;;;;6297305;22;20054;-93
2022/12/09 07:24:40;;;;;;;2.63;0.60;;;;;;;;;;6298861;22;20174;-94
2022/12/09 07:27:06;;;;;;;7.63;1.00;;;;;;;;;;6299515;22;20068;-95
2022/12/09 07:29:34;;;;;;;6.75;0.98;;;;;;;;;;6301390;22;20003;-94
2022/12/09 07:31:59;;;;;;;5.05;1.02;;;;;;;;;;6301775;22;20026;-94
2022/12/09 07:34:25;;;;;;;4.78;0.95;;;;;;;;;;6298576;22;20452;-94
2022/12/09 07:36:50;;;;;;;5.78;0.90;;;;;;;;;;6296422;22;20029;-94
2022/12/09 07:39:22;;;;;;;4.97;1.10;;;;;;;;;;6273071;22;19992;-95
2022/12/09 07:41:52;;;;;;;11.82;1.58;;;;;;;;;;6269745;22;20027;-92
2022/12/09 07:44:17;;;;;;;6.78;1.00;;;;;;;;;;6238519;22;20011;-93
2022/12/09 07:46:43;;;;;;;8.30;1.25;;;;;;;;;;6267268;22;20073;-94
2022/12/09 07:52:18;;;;;;;10.77;1.33;;;;;;;;;;6259104;22;20008;-93
2022/12/09 07:54:44;;;;;;;6.03;0.90;;;;;;;;;;6240793;22;20042;-94
2022/12/09 07:57:09;;;;;;;6.95;0.98;;;;;;;;;;6267524;22;20027;-93
2022/12/09 07:59:35;;;;;;;6.93;1.05;;;;;;;;;;6267844;22;19996;-93
2022/12/09 08:02:02;;;;;;;11.65;1.20;;;;;;;;;;6268902;22;20457;-92
2022/12/09 08:04:27;;;;;;;6.72;1.02;;;;;;;;;;6268460;22;20022;-92
2022/12/09 08:06:53;;;;;;;11.85;1.65;;;;;;;;;;6266825;22;20425;-93
2022/12/09 08:09:18;;;;;;;5.70;0.90;;;;;;;;;;6267893;22;20002;-93
2022/12/09 08:11:43;;;;;;;7.03;1.10;;;;;;;;;;6266965;22;20019;-93
2022/12/09 08:14:09;;;;;;;4.57;1.10;;;;;;;;;;6263289;22;20008;-93
2022/12/09 08:16:34;;;;;;;8.77;1.20;;;;;;;;;;6266856;22;20014;-93
2022/12/09 08:18:59;;;;;;;7.25;1.33;;;;;;;;;;6265246;22;20341;-92
2022/12/09 08:21:26;;;;;;;5.67;0.97;;;;;;;;;;6267061;22;20405;-93
2022/12/09 08:23:52;;;;;;;6.00;0.95;;;;;;;;;;6267010;22;20233;-93
2022/12/09 08:26:20;;;;;;;5.75;0.70;;;;;;;;;;6265357;22;20046;-92
2022/12/09 08:28:45;;;;;;;6.80;1.20;;;;;;;;;;6269682;22;19999;-93
2022/12/09 08:31:14;;;;;;;9.20;1.63;;;;;;;;;;6261196;22;20263;-93
2022/12/09 08:33:40;;;;;;;7.07;1.15;;;;;;;;;;6262264;22;20444;-92
2022/12/09 08:36:10;;;;;;;7.03;1.17;;;;;;;;;;6265805;22;20004;-92
2022/12/09 08:38:35;;;;;;;8.68;1.27;;;;;;;;;;6268020;22;20364;-93
2022/12/09 08:41:36;;;;;;;8.43;1.10;;;;;;;;;;6236540;22;20467;-93
2022/12/09 08:44:10;;;;;;;9.10;1.60;;;;;;;;;;6290641;22;20035;-93
2022/12/09 08:46:37;;;;;;;6.57;1.00;;;;;;;;;;6263488;22;20075;-93
2022/12/09 08:49:03;;;;;;;8.02;1.50;;;;;;;;;;6258519;22;20040;-93
2022/12/09 08:51:29;;;;;;;4.25;0.90;;;;;;;;;;6264166;22;20011;-92
2022/12/09 08:53:55;;;;;;;6.35;1.20;;;;;;;;;;6262080;22;20158;-93
2022/12/09 08:56:21;;;;;;;8.75;1.27;;;;;;;;;;6265797;22;19999;-93
2022/12/09 08:58:47;;;;;;;7.05;1.10;;;;;;;;;;6264472;22;20010;-93
2022/12/09 09:01:33;;;;;;;4.65;0.85;;;;;;;;;;6266168;22;19999;-93
2022/12/09 09:04:06;;;;;;;8.20;1.10;;;;;;;;;;6268202;22;20046;-93
2022/12/09 09:06:31;;;;;;;5.45;1.15;;;;;;;;;;6272195;22;19999;-94
2022/12/09 09:08:57;;;;;;;3.42;0.90;;;;;;;;;;6269360;22;20063;-94
2022/12/09 09:11:22;;;;;;;8.00;1.20;;;;;;;;;;6269931;22;20061;-93
2022/12/09 09:13:52;;;;;;;5.18;1.10;;;;;;;;;;6270209;22;20015;-94
2022/12/09 09:16:18;;;;;;;4.38;0.82;;;;;;;;;;6269032;22;20449;-93
2022/12/09 09:18:43;;;;;;;8.73;1.20;;;;;;;;;;6242103;22;20019;-95
2022/12/09 09:21:10;;;;;;;6.70;1.13;;;;;;;;;;6269793;22;19996;-93
2022/12/09 09:23:35;;;;;;;5.82;1.25;;;;;;;;;;6269175;22;20011;-93
2022/12/09 09:26:00;;;;;;;8.53;1.33;;;;;;;;;;6266721;22;20396;-92
2022/12/09 09:28:26;;;;;;;6.80;1.05;;;;;;;;;;6265130;22;20570;-92
2022/12/09 09:31:02;;;;;;;5.38;0.90;;;;;;;;;;6266978;22;20007;-92
2022/12/09 09:33:27;;;;;;;6.85;1.10;;;;;;;;;;6267634;22;20050;-92
2022/12/09 09:35:59;;;;;;;6.68;1.40;;;;;;;;;;6267828;22;20012;-92
2022/12/09 09:38:25;;;;;;;8.75;1.30;;;;;;;;;;6241680;22;20536;-92
2022/12/09 09:40:51;;;;;;;5.88;1.30;;;;;;;;;;6269911;22;20015;-91
2022/12/09 09:43:18;;;;;;;7.15;1.20;;;;;;;;;;6269891;22;20092;-93
2022/12/09 09:45:43;;;;;;;5.97;1.13;;;;;;;;;;6268471;22;20034;-92
2022/12/09 09:48:12;;;;;;;8.05;1.42;;;;;;;;;;6268613;22;20003;-93
2022/12/09 09:50:38;;;;;;;4.75;1.15;;;;;;;;;;6268897;22;20425;-92
2022/12/09 09:53:14;;;;;;;6.83;1.27;;;;;;;;;;6267108;22;20018;-94
2022/12/09 09:55:59;;;;;;;13.43;1.50;;;;;;;;;;6266539;22;20788;-92
2022/12/09 09:58:44;;;;;;;8.98;1.33;;;;;;;;;;6290887;22;20449;-93
2022/12/09 10:01:13;;;;;;;8.93;1.67;;;;;;;;;;6267644;22;20012;-92
2022/12/09 10:03:41;;;;;;;7.90;1.35;;;;;;;;;;6266756;22;20109;-90
2022/12/09 10:06:21;;;;;;;7.40;1.52;;;;;;;;;;6268444;22;20011;-91
2022/12/09 10:08:46;;;;;;;7.15;1.25;;;;;;;;;;6266831;22;19996;-93
2022/12/09 10:11:15;;;;;;;5.13;1.38;;;;;;;;;;6266379;22;20007;-93
2022/12/09 10:13:50;;;;;;;7.82;1.50;;;;;;;;;;6267927;22;20066;-92
2022/12/09 10:16:28;;;;;;;8.63;1.38;;;;;;;;;;6269168;22;20171;-92
2022/12/09 10:18:56;;;;;;;6.90;1.50;;;;;;;;;;6266203;22;20087;-92
2022/12/09 10:21:21;;;;;;;9.60;1.33;;;;;;;;;;6265332;22;20070;-93
2022/12/09 10:23:47;;;;;;;6.50;1.17;;;;;;;;;;6270193;22;20011;-92
2022/12/09 10:26:18;;;;;;;7.47;1.33;;;;;;;;;;6268669;22;20402;-93
2022/12/09 10:28:45;;;;;;;14.68;1.80;;;;;;;;;;6241498;22;20514;-92
2022/12/09 10:31:11;;;;;;;5.60;1.10;;;;;;;;;;6269032;22;20004;-93
2022/12/09 10:33:37;;;;;;;7.30;1.45;;;;;;;;;;6241092;22;20014;-92
2022/12/09 10:36:03;;;;;;;6.10;1.30;;;;;;;;;;6267484;22;20012;-91
2022/12/09 10:38:29;;;;;;;10.10;1.70;;;;;;;;;;6269886;22;20309;-93
2022/12/09 10:41:06;;;;;;;10.60;1.60;;;;;;;;;;6268559;22;20031;-93
2022/12/09 10:46:11;;;;;;;6.13;1.05;;;;;;;;;;6273301;22;20078;-93
2022/12/09 10:48:45;;;;;;;6.63;1.48;;;;;;;;;;6263657;22;20011;-93
2022/12/09 10:51:24;;;;;;;7.75;1.45;;;;;;;;;;6266694;22;20112;-93
2022/12/09 10:53:51;;;;;;;5.72;1.27;;;;;;;;;;6272454;22;20014;-94
2022/12/09 10:56:18;;;;;;;10.52;1.50;;;;;;;;;;6267699;22;20039;-94
2022/12/09 10:58:44;;;;;;;6.72;1.40;;;;;;;;;;6271048;22;20402;-94
2022/12/09 11:01:14;;;;;;;7.55;1.08;;;;;;;;;;6270180;22;20003;-94
2022/12/09 11:03:53;;;;;;;12.02;2.15;;;;;;;;;;6243192;22;20007;-92
2022/12/09 11:06:26;;;;;;;7.20;1.42;;;;;;;;;;6271723;22;20000;-95
2022/12/09 11:08:51;;;;;;;;;;;;;;;;;;6272624;22;20004;-93
2022/12/09 11:11:17;;;;;;;9.13;1.58;;;;;;;;;;6272099;22;19899;-94
2022/12/09 11:13:42;;;;;;;9.50;1.77;;;;;;;;;;6269148;22;20333;-94
2022/12/09 11:16:08;;;;;;;7.75;1.50;;;;;;;;;;6271297;22;20004;-94
2022/12/09 11:18:36;;;;;;;9.15;1.77;;;;;;;;;;6268939;22;20026;-93
2022/12/09 11:21:03;;;;;;;12.68;2.20;;;;;;;;;;6271226;22;20074;-93
2022/12/09 11:23:28;;;;;;;8.88;2.17;;;;;;;;;;6269985;22;20142;-93
2022/12/09 11:26:04;;;;;;;9.43;2.28;;;;;;;;;;6270626;22;20031;-93
2022/12/09 11:28:37;;;;;;;8.93;2.50;;;;;;;;;;6268646;22;20011;-94
2022/12/09 11:31:12;;;;;;;12.13;3.00;;;;;;;;;;6270017;22;20114;-93
2022/12/09 11:33:49;;;;;;;11.75;3.30;;;;;;;;;;6270857;22;20000;-94
2022/12/09 11:36:19;;;;;;;12.68;3.50;;;;;;;;;;6241197;23;20452;-95
2022/12/09 11:38:46;;;;;;;11.70;3.60;;;;;;;;;;6217622;23;20004;-94
2022/12/09 11:42:12;;;;;;;12.95;3.20;;;;;;;;;;6218031;23;20031;-94
2022/12/09 11:43:59;;;;;;;12.48;3.47;;;;;;;;;;6243545;23;20387;-94
2022/12/09 11:46:31;;;;;;;9.35;3.20;;;;;;;;;;6237980;23;20020;-95
2022/12/09 11:48:56;;;;;;;10.75;3.58;;;;;;;;;;6238748;23;20079;-95
2022/12/09 11:51:29;;;;;;;11.73;3.50;;;;;;;;;;6217661;23;20004;-95
2022/12/09 11:54:00;;;;;;;14.85;3.30;;;;;;;;;;6235108;23;20004;-95
2022/12/09 11:56:26;;;;;;;11.65;3.03;;;;;;;;;;6213395;23;20003;-94
2022/12/09 11:59:10;;;;;;;10.48;3.13;;;;;;;;;;6241108;23;20623;-94
2022/12/09 12:01:54;;;;;;;11.95;3.20;;;;;;;;;;6240812;23;19993;-95
2022/12/09 12:04:40;;;;;;;12.00;3.30;;;;;;;;;;6237890;23;20012;-93
2022/12/09 12:07:25;;;;;;;11.20;3.50;;;;;;;;;;6237217;23;20007;-94
2022/12/09 12:09:53;;;;;;;9.70;3.10;;;;;;;;;;6239493;23;20012;-95
2022/12/09 12:12:19;;;;;;;8.80;3.15;;;;;;;;;;6212472;23;20024;-94
2022/12/09 12:14:45;;;;;;;9.88;2.92;;;;;;;;;;6212533;23;20472;-94
2022/12/09 12:17:20;;;;;;;9.73;3.08;;;;;;;;;;6237517;23;20004;-94
2022/12/09 12:19:49;;;;;;;15.13;3.25;;;;;;;;;;6211238;23;19996;-95
2022/12/09 12:22:24;;;;;;;10.45;3.47;;;;;;;;;;6212143;23;20008;-93
2022/12/09 12:24:57;;;;;;;10.35;2.60;;;;;;;;;;6211793;23;20100;-94
2022/12/09 12:27:35;;;;;;;13.10;3.65;;;;;;;;;;6236012;23;20008;-96
2022/12/09 12:30:03;;;;;;;9.60;2.80;;;;;;;;;;6236235;23;20122;-93
2022/12/09 12:32:34;;;;;;;12.07;3.05;;;;;;;;;;6209640;23;20079;-93
2022/12/09 12:35:15;;;;;;;10.48;3.42;;;;;;;;;;6213558;23;20024;-92
2022/12/09 12:38:00;;;;;;;10.68;3.17;;;;;;;;;;6238243;23;19996;-93
2022/12/09 12:40:36;;;;;;;13.27;2.88;;;;;;;;;;6185392;23;20008;-93
2022/12/09 12:46:18;;;;;;;8.32;2.80;;;;;;;;;;6235958;23;20500;-93
2022/12/09 12:48:52;;;;;;;11.98;2.78;;;;;;;;;;6210293;23;20004;-94
2022/12/09 12:51:23;;;;;;;11.00;3.05;;;;;;;;;;6209161;23;20369;-93
2022/12/09 12:53:56;;;;;;;12.25;3.03;;;;;;;;;;6234213;23;20008;-94
2022/12/09 12:56:39;;;;;;;11.05;3.10;;;;;;;;;;6236130;23;19996;-93
2022/12/09 12:59:14;;;;;;;9.05;3.05;;;;;;;;;;6238012;23;20015;-94
2022/12/09 13:01:51;;;;;;;10.25;2.60;;;;;;;;;;6210449;23;20047;-93
2022/12/09 13:04:19;;;;;;;8.82;2.55;;;;;;;;;;6237955;23;20456;-94
2022/12/09 13:07:05;;;;;;;10.93;2.78;;;;;;;;;;6212252;23;20036;-94
2022/12/09 13:09:31;;;;;;;8.35;1.90;;;;;;;;;;6206710;23;20004;-93
2022/12/09 13:11:56;;;;;;;9.70;1.70;;;;;;;;;;6238948;23;20004;-92
2022/12/09 13:14:25;;;;;;;8.38;1.70;;;;;;;;;;6239198;23;20004;-93
2022/12/09 13:16:51;;;;;;;9.90;2.08;;;;;;;;;;6237664;23;20070;-94
2022/12/09 13:19:27;;;;;;;6.78;1.30;;;;;;;;;;6212639;23;20004;-93
2022/12/09 13:21:52;;;;;;;5.53;1.40;;;;;;;;;;6213298;23;20047;-94
2022/12/09 13:24:25;;;;;;;7.00;1.40;;;;;;;;;;6214557;23;20438;-93
2022/12/09 13:26:53;;;;;;;6.55;1.80;;;;;;;;;;6213079;23;20004;-93
2022/12/09 13:29:51;;;;;;;8.25;1.80;;;;;;;;;;6236874;23;20019;-93
2022/12/09 13:32:38;;;;;;;9.88;2.28;;;;;;;;;;6208018;23;20012;-93
2022/12/09 13:35:15;;;;;;;8.45;1.85;;;;;;;;;;6212653;23;20016;-93
2022/12/09 13:37:40;;;;;;;8.60;2.20;;;;;;;;;;6238821;23;20004;-93
2022/12/09 13:40:44;;;;;;;7.43;2.35;;;;;;;;;;6211149;23;20533;-93
2022/12/09 13:43:20;;;;;;;11.88;2.67;;;;;;;;;;6207744;23;20004;-93
2022/12/09 13:45:49;;;;;;;8.25;2.00;;;;;;;;;;6205644;23;20016;-93
2022/12/09 13:48:14;;;;;;;12.60;3.50;;;;;;;;;;6205726;23;20055;-93
2022/12/09 13:50:42;;;;;;;10.73;2.90;;;;;;;;;;6209586;23;20428;-94
2022/12/09 13:53:19;;;;;;;8.02;2.28;;;;;;;;;;6180688;23;20104;-93
2022/12/09 13:55:56;;;;;;;8.15;2.60;;;;;;;;;;6233077;23;19997;-93
2022/12/09 13:58:22;;;;;;;9.65;2.65;;;;;;;;;;6209358;23;20004;-93
2022/12/09 14:00:58;;;;;;;9.27;2.83;;;;;;;;;;6235241;23;20005;-95
2022/12/09 14:03:28;;;;;;;9.50;2.28;;;;;;;;;;6234683;23;20009;-94
2022/12/09 14:05:54;;;;;;;11.02;3.00;;;;;;;;;;6207094;23;20016;-94
2022/12/09 14:08:25;;;;;;;13.55;2.60;;;;;;;;;;6183493;23;20043;-95
2022/12/09 14:10:51;;;;;;;10.43;2.50;;;;;;;;;;6184397;23;19996;-94
2022/12/09 14:13:27;;;;;;;10.63;2.63;;;;;;;;;;6242728;22;20012;-94
2022/12/09 14:16:22;;;;;;;14.38;3.67;;;;;;;;;;6217236;23;19996;-95
2022/12/09 14:18:48;;;;;;;10.60;2.35;;;;;;;;;;6229747;23;20004;-94
2022/12/09 14:21:16;;;;;;;8.45;2.47;;;;;;;;;;6241755;23;20727;-93
2022/12/09 14:24:01;;;;;;;9.55;2.38;;;;;;;;;;6214318;23;20008;-93
2022/12/09 14:26:34;;;;;;;7.65;2.20;;;;;;;;;;6215484;23;20012;-94
2022/12/09 14:29:02;;;;;;;12.57;3.13;;;;;;;;;;6243683;23;20105;-93
2022/12/09 14:31:45;;;;;;;9.25;2.63;;;;;;;;;;6214711;23;20019;-94
2022/12/09 14:34:24;;;;;;;10.85;2.58;;;;;;;;;;6207083;23;20118;-93
2022/12/09 14:36:55;;;;;;;8.95;2.50;;;;;;;;;;6210522;23;20016;-92
2022/12/09 14:39:25;;;;;;;9.38;2.70;;;;;;;;;;6184592;23;20130;-93
2022/12/09 14:41:50;;;;;;;13.27;3.08;;;;;;;;;;6212361;23;20447;-94
2022/12/09 14:44:27;;;;;;;10.55;2.90;;;;;;;;;;6210508;23;20083;-94
2022/12/09 14:47:08;;;;;;;10.63;3.05;;;;;;;;;;6209438;23;20005;-94
2022/12/09 14:49:34;;;;;;;11.85;3.47;;;;;;;;;;6185101;23;20108;-95
2022/12/09 14:52:02;;;;;;;14.85;4.13;;;;;;;;;;6186185;23;20139;-93
2022/12/09 14:54:35;;;;;;;12.93;4.75;;;;;;;;;;6213641;23;20004;-95
2022/12/09 14:57:02;;;;;;;18.20;5.63;;;;;;;;;;6187862;23;20001;-93
2022/12/09 14:59:28;;;;;;;15.45;5.88;;;;;;;;;;6186325;23;20386;-93
2022/12/09 15:01:55;;;;;;;23.10;6.20;;;;;;;;;;6186206;23;20001;-94